Aviation Digital Data Service (ADDS)

Output produced by METARs form (0340 UTC 26 April 2019)
found at http://www.aviationweather.gov/metar/data/
 
Forecast for: OEDF (KING FAHD INTL , SA)
Text: TAF OEDF 252100Z 2600/2706 33012KT CAVOK
Forecast period: 0000 to 1000 UTC 26 April 2019
Forecast type: FROM: standard forecast or significant change
Winds: from the NNW (330 degrees) at 14 MPH (12 knots; 6.2 m/s)
Visibility: 6 or more miles 10+ km)
Ceiling: unknown
Clouds: missing
Weather: NSW  (no significant weather)
Text: BECMG 2610/2612 03010KT
Forecast period: 1000 UTC 26 April 2019 to 0600 UTC 27 April 2019
Forecast type: BECOMING: Conditions expected to become as follows by 1200 UTC 26 April 2019
Winds: from the NNE (30 degrees) at 12 MPH (10 knots; 5.1 m/s)
Visibility: 6 or more miles 10+ km)
Ceiling: unknown
Clouds: missing
Weather: NSW  (no significant weather)